Time;durP1;ratioP1;P1;durP2;ratioP2;P2;SDS_P1;SDS_P2;PMS_P1;PMS_P2;Temp;Humidity;BMP_temperature;BMP_pressure;BME280_temperature;BME280_humidity;BME280_pressure;Samples;Min_cycle;Max_cycle;Signal;HPM_P1;HPM_P2
2023/02/18 00:01:58;;;;;;;1.50;1.30;;;17.30;50.30;;;;;;5031642;28;20194;-70
2023/02/18 00:04:23;;;;;;;1.80;1.40;;;17.30;50.30;;;;;;5031156;28;20740;-72
2023/02/18 00:06:50;;;;;;;1.27;0.97;;;17.30;50.30;;;;;;5031546;28;20200;-71
2023/02/18 00:09:15;;;;;;;1.30;1.20;;;17.30;50.30;;;;;;5031380;28;20433;-72
2023/02/18 00:11:41;;;;;;;2.00;1.43;;;17.30;50.40;;;;;;5031363;28;20406;-72
2023/02/18 00:14:11;;;;;;;1.40;1.30;;;17.20;50.30;;;;;;5031376;28;20204;-72
2023/02/18 00:16:37;;;;;;;1.63;1.40;;;17.20;50.30;;;;;;5031366;28;20568;-72
2023/02/18 00:19:05;;;;;;;1.63;1.43;;;17.20;50.30;;;;;;5029977;28;20440;-71
2023/02/18 00:21:32;;;;;;;1.97;1.00;;;17.20;50.30;;;;;;5031076;28;20211;-71
2023/02/18 00:23:58;;;;;;;1.30;1.10;;;17.20;50.40;;;;;;5031195;28;20466;-72
2023/02/18 00:26:24;;;;;;;1.77;1.23;;;17.10;50.30;;;;;;5031008;28;20904;-72
2023/02/18 00:28:50;;;;;;;2.10;1.30;;;17.20;50.40;;;;;;5031155;28;20529;-72
2023/02/18 00:31:25;;;;;;;1.30;1.20;;;17.20;50.40;;;;;;5031016;28;20175;-71
2023/02/18 00:33:51;;;;;;;1.70;1.50;;;17.20;50.40;;;;;;5031094;28;20426;-71
2023/02/18 00:36:18;;;;;;;1.40;1.00;;;17.10;50.30;;;;;;5030911;28;20918;-72
2023/02/18 00:38:45;;;;;;;1.40;1.20;;;17.10;50.30;;;;;;5030971;28;20200;-72
2023/02/18 00:41:11;;;;;;;1.40;1.23;;;17.10;50.40;;;;;;5030771;28;20414;-72
2023/02/18 00:43:37;;;;;;;1.30;1.20;;;17.10;50.30;;;;;;5030712;28;20470;-71
2023/02/18 00:46:02;;;;;;;1.30;1.20;;;17.10;50.30;;;;;;5030922;28;20176;-71
2023/02/18 00:48:28;;;;;;;1.40;1.10;;;17.10;50.30;;;;;;5030670;28;20226;-71
2023/02/18 00:50:54;;;;;;;1.80;1.20;;;17.10;50.50;;;;;;5030689;28;20184;-71
2023/02/18 00:53:21;;;;;;;1.33;1.13;;;17.10;50.30;;;;;;5030534;28;20182;-71
2023/02/18 00:55:47;;;;;;;1.17;1.07;;;17.10;50.30;;;;;;5030790;28;20571;-71
2023/02/18 00:58:14;;;;;;;1.30;1.20;;;17.10;50.30;;;;;;5030580;28;20444;-71
2023/02/18 01:00:40;;;;;;;1.03;0.90;;;17.10;50.30;;;;;;5030779;28;20450;-71
2023/02/18 01:03:09;;;;;;;1.90;1.20;;;17.10;50.20;;;;;;5031190;28;20462;-71
2023/02/18 01:05:36;;;;;;;1.27;1.10;;;17.10;50.30;;;;;;5030956;28;20410;-70
2023/02/18 01:08:02;;;;;;;1.50;1.30;;;17.10;50.30;;;;;;5030379;28;20434;-71
2023/02/18 01:10:28;;;;;;;1.20;1.03;;;17.10;50.40;;;;;;5030427;28;20453;-71
2023/02/18 01:12:54;;;;;;;1.30;1.10;;;17.10;50.30;;;;;;5030386;28;20442;-71
2023/02/18 01:15:20;;;;;;;1.83;1.10;;;17.00;50.30;;;;;;5030561;28;20262;-67
2023/02/18 01:17:45;;;;;;;1.30;1.20;;;17.00;50.30;;;;;;5030355;28;20470;-67
2023/02/18 01:20:12;;;;;;;1.60;1.10;;;17.00;50.20;;;;;;5030552;28;20286;-67
2023/02/18 01:22:38;;;;;;;2.40;1.20;;;17.00;50.20;;;;;;5030466;28;20703;-67
2023/02/18 01:25:05;;;;;;;2.10;1.20;;;17.00;50.80;;;;;;5030781;28;20431;-67
2023/02/18 01:27:30;;;;;;;1.10;1.00;;;17.00;50.30;;;;;;5030490;28;20605;-68
2023/02/18 01:29:56;;;;;;;1.23;1.00;;;17.00;50.30;;;;;;5030905;28;20490;-68
2023/02/18 01:32:21;;;;;;;1.53;1.20;;;17.00;50.30;;;;;;5030251;28;20540;-65
2023/02/18 01:34:47;;;;;;;1.50;1.27;;;17.00;50.30;;;;;;5030106;28;20183;-65
2023/02/18 01:37:13;;;;;;;1.30;1.10;;;17.00;50.40;;;;;;5030167;28;20175;-65
2023/02/18 01:39:39;;;;;;;1.23;1.00;;;17.00;50.30;;;;;;5030027;28;20555;-66
2023/02/18 01:42:05;;;;;;;1.50;1.30;;;17.00;50.30;;;;;;5029976;28;20176;-65
2023/02/18 01:44:34;;;;;;;1.30;1.20;;;17.00;50.30;;;;;;5029901;28;20470;-65
2023/02/18 01:47:00;;;;;;;1.97;1.10;;;17.00;50.30;;;;;;5030208;28;20464;-65
2023/02/18 01:49:29;;;;;;;1.30;1.20;;;17.00;50.30;;;;;;5030121;28;20926;-65
2023/02/18 01:52:21;;;;;;;1.50;1.20;;;17.00;50.30;;;;;;5030318;28;20795;-68
2023/02/18 01:54:50;;;;;;;2.17;1.20;;;17.00;50.30;;;;;;5025803;27;20464;-67
2023/02/18 01:57:31;;;;;;;1.33;1.03;;;17.00;50.30;;;;;;5030278;28;20437;-67
2023/02/18 02:00:02;;;;;;;1.50;1.20;;;17.00;50.30;;;;;;5030463;28;20402;-67
2023/02/18 02:02:28;;;;;;;1.50;0.90;;;16.90;50.30;;;;;;5028750;28;20759;-68
2023/02/18 02:04:54;;;;;;;1.03;0.93;;;16.90;50.40;;;;;;5030089;28;20414;-68
2023/02/18 02:07:22;;;;;;;1.10;1.00;;;16.90;50.30;;;;;;5029843;28;20505;-67
2023/02/18 02:09:50;;;;;;;1.10;0.90;;;16.90;50.30;;;;;;5030473;28;20528;-67
2023/02/18 02:12:39;;;;;;;1.10;0.97;;;16.90;50.40;;;;;;5030137;28;20417;-67
2023/02/18 02:15:23;;;;;;;1.20;1.00;;;16.90;50.30;;;;;;5030022;28;20501;-67
2023/02/18 02:18:26;;;;;;;1.10;0.90;;;16.90;50.40;;;;;;5029713;28;20961;-67
2023/02/18 02:21:20;;;;;;;1.30;1.20;;;16.90;50.40;;;;;;5030162;28;20406;-66
2023/02/18 02:24:02;;;;;;;1.17;1.00;;;16.90;50.40;;;;;;5014809;28;20511;-68
2023/02/18 02:26:46;;;;;;;1.20;1.10;;;16.90;50.50;;;;;;5030168;28;20407;-67
2023/02/18 02:29:14;;;;;;;1.10;1.00;;;16.90;50.50;;;;;;5031712;28;20438;-67
2023/02/18 02:31:54;;;;;;;1.60;0.93;;;16.90;50.50;;;;;;5033132;28;20414;-67
2023/02/18 02:34:41;;;;;;;1.33;0.90;;;16.90;50.40;;;;;;5033260;28;20429;-68
2023/02/18 02:37:13;;;;;;;1.40;1.07;;;16.90;50.50;;;;;;5033256;28;20417;-67
2023/02/18 02:39:41;;;;;;;1.30;1.07;;;16.90;50.40;;;;;;5033205;28;20399;-68
2023/02/18 02:42:22;;;;;;;1.20;1.10;;;16.90;50.50;;;;;;5032839;28;20436;-67
2023/02/18 02:44:55;;;;;;;1.00;0.90;;;16.90;50.40;;;;;;5033061;28;20766;-67
2023/02/18 02:47:48;;;;;;;1.53;1.20;;;16.90;51.00;;;;;;5032666;28;20941;-67
2023/02/18 02:50:38;;;;;;;1.20;0.93;;;16.90;50.50;;;;;;5032952;28;20403;-67
2023/02/18 02:53:19;;;;;;;1.20;0.90;;;16.80;50.40;;;;;;5032923;28;20947;-68
2023/02/18 02:55:45;;;;;;;1.10;0.90;;;16.80;50.50;;;;;;5032855;28;20418;-68
2023/02/18 02:58:15;;;;;;;1.50;1.20;;;16.80;50.40;;;;;;5032670;28;20840;-67
2023/02/18 03:01:02;;;;;;;1.97;1.20;;;16.80;50.40;;;;;;5032976;28;20410;-67
2023/02/18 03:03:52;;;;;;;1.00;0.90;;;16.80;50.40;;;;;;5032758;28;20561;-68
2023/02/18 03:06:26;;;;;;;1.23;1.00;;;16.80;50.40;;;;;;5032729;28;20833;-67
2023/02/18 03:09:12;;;;;;;1.17;1.07;;;16.80;50.40;;;;;;5032573;28;20426;-67
2023/02/18 03:11:52;;;;;;;1.10;1.00;;;16.80;50.40;;;;;;5033212;28;20899;-67
2023/02/18 03:14:47;;;;;;;1.30;1.00;;;16.80;50.40;;;;;;5032425;28;20937;-67
2023/02/18 03:17:59;;;;;;;1.00;0.90;;;16.80;50.40;;;;;;5027998;28;20429;-68
2023/02/18 03:20:33;;;;;;;1.50;1.00;;;16.80;50.50;;;;;;4991052;28;20757;-67
2023/02/18 03:23:03;;;;;;;2.43;1.33;;;16.80;50.50;;;;;;5029440;28;20553;-67
2023/02/18 03:25:30;;;;;;;2.40;1.00;;;16.80;50.50;;;;;;5032632;28;20411;-67
2023/02/18 03:28:00;;;;;;;1.00;0.87;;;16.80;50.50;;;;;;5032178;28;20437;-67
2023/02/18 03:30:55;;;;;;;1.00;0.90;;;16.80;50.50;;;;;;5031253;28;20904;-66
2023/02/18 03:33:27;;;;;;;1.10;1.00;;;16.80;50.40;;;;;;5030468;28;20794;-65
2023/02/18 03:35:55;;;;;;;1.10;0.97;;;16.80;50.50;;;;;;5031677;28;20410;-66
2023/02/18 03:38:32;;;;;;;1.30;1.03;;;16.80;50.50;;;;;;5031946;28;20437;-66
2023/02/18 03:40:58;;;;;;;1.27;1.10;;;16.80;50.50;;;;;;5031668;28;20467;-65
2023/02/18 03:43:23;;;;;;;1.20;1.10;;;16.80;50.50;;;;;;5031894;28;20971;-65
2023/02/18 03:45:49;;;;;;;1.17;0.80;;;16.80;50.50;;;;;;5031950;28;20168;-65
2023/02/18 03:48:15;;;;;;;1.33;0.90;;;16.80;50.50;;;;;;5032438;28;20238;-65
2023/02/18 03:50:40;;;;;;;1.13;1.00;;;16.80;50.50;;;;;;5031800;28;20422;-65
2023/02/18 03:53:06;;;;;;;1.63;1.00;;;16.80;50.50;;;;;;5031810;28;20210;-66
2023/02/18 03:55:32;;;;;;;1.07;0.90;;;16.80;50.60;;;;;;5031701;28;20176;-66
2023/02/18 03:57:57;;;;;;;1.13;0.87;;;16.80;50.50;;;;;;5031347;28;20240;-66
2023/02/18 04:00:23;;;;;;;1.20;0.80;;;16.80;50.60;;;;;;5031421;28;20178;-65
2023/02/18 04:02:49;;;;;;;1.10;0.90;;;16.80;50.60;;;;;;5031616;28;20690;-65
2023/02/18 04:05:14;;;;;;;1.17;0.93;;;16.80;50.60;;;;;;5031322;28;20529;-65
2023/02/18 04:07:40;;;;;;;1.00;0.83;;;16.80;50.60;;;;;;5031457;28;20283;-65
2023/02/18 04:10:07;;;;;;;0.90;0.80;;;16.80;50.60;;;;;;5031618;28;20559;-65
2023/02/18 04:12:32;;;;;;;0.90;0.80;;;16.80;50.60;;;;;;5031748;28;20251;-67
2023/02/18 04:14:58;;;;;;;1.00;0.90;;;16.80;50.60;;;;;;5031675;28;20453;-67
2023/02/18 04:17:24;;;;;;;0.90;0.80;;;16.80;50.60;;;;;;5031402;28;20192;-67
2023/02/18 04:19:49;;;;;;;1.03;0.90;;;16.80;50.60;;;;;;5031831;28;20175;-67
2023/02/18 04:22:15;;;;;;;1.40;0.80;;;16.80;50.70;;;;;;5031399;28;20190;-66
2023/02/18 04:24:40;;;;;;;1.00;0.80;;;16.80;50.70;;;;;;5031340;28;20199;-67
2023/02/18 04:27:06;;;;;;;1.00;0.80;;;16.80;50.70;;;;;;5031649;28;20168;-67
2023/02/18 04:29:31;;;;;;;1.00;0.80;;;16.80;50.70;;;;;;5030373;28;20168;-67
2023/02/18 04:31:57;;;;;;;1.00;0.80;;;16.80;50.70;;;;;;5031464;28;20175;-68
2023/02/18 04:34:23;;;;;;;1.60;0.90;;;16.80;50.70;;;;;;5031337;28;20633;-68
2023/02/18 04:36:48;;;;;;;1.30;0.93;;;16.80;50.70;;;;;;5031504;28;20171;-67
2023/02/18 04:39:14;;;;;;;0.93;0.70;;;16.80;50.70;;;;;;5030851;28;20692;-68
2023/02/18 04:41:39;;;;;;;1.00;0.70;;;16.80;50.70;;;;;;5031121;28;20203;-67
2023/02/18 04:44:05;;;;;;;1.00;0.80;;;16.70;50.60;;;;;;5030865;28;20204;-68
2023/02/18 04:46:31;;;;;;;1.00;0.80;;;16.70;50.60;;;;;;5030887;28;20172;-66
2023/02/18 04:48:57;;;;;;;1.00;0.80;;;16.70;50.60;;;;;;5030796;28;20329;-66
2023/02/18 04:51:22;;;;;;;1.00;0.90;;;16.70;50.60;;;;;;5030626;28;20858;-68
2023/02/18 04:53:48;;;;;;;0.97;0.70;;;16.70;50.60;;;;;;5031042;28;20259;-68
2023/02/18 04:56:14;;;;;;;0.90;0.80;;;16.70;50.60;;;;;;5031033;28;20636;-67
2023/02/18 04:58:39;;;;;;;1.33;0.80;;;16.70;50.60;;;;;;5029556;28;20272;-67
2023/02/18 05:01:05;;;;;;;0.90;0.70;;;16.70;50.60;;;;;;5031071;28;20188;-67
2023/02/18 05:03:32;;;;;;;0.90;0.70;;;16.70;50.60;;;;;;5030677;28;20192;-66
2023/02/18 05:05:57;;;;;;;1.20;1.00;;;16.70;50.60;;;;;;5030726;28;20175;-65
2023/02/18 05:08:23;;;;;;;1.00;0.90;;;16.70;50.70;;;;;;5030357;28;20430;-66
2023/02/18 05:10:48;;;;;;;1.40;1.17;;;16.70;50.70;;;;;;5030420;28;20174;-64
2023/02/18 05:13:14;;;;;;;1.03;0.83;;;16.70;50.70;;;;;;5030664;28;20179;-65
2023/02/18 05:15:40;;;;;;;1.10;0.80;;;16.70;50.70;;;;;;5030646;28;20625;-65
2023/02/18 05:18:06;;;;;;;1.13;0.90;;;16.70;50.70;;;;;;5030703;28;20283;-65
2023/02/18 05:20:32;;;;;;;0.83;0.70;;;16.70;50.70;;;;;;5030537;28;20592;-65
2023/02/18 05:22:58;;;;;;;1.70;0.80;;;16.70;50.60;;;;;;5030175;28;20450;-65
2023/02/18 05:25:24;;;;;;;1.40;1.00;;;16.70;50.70;;;;;;5030530;28;20766;-65
2023/02/18 05:27:50;;;;;;;0.90;0.70;;;16.70;50.60;;;;;;5030111;28;20190;-66
2023/02/18 05:30:15;;;;;;;0.90;0.70;;;16.70;50.60;;;;;;5030339;28;20180;-65
2023/02/18 05:32:41;;;;;;;1.00;0.80;;;16.70;50.60;;;;;;5030050;28;20536;-66
2023/02/18 05:35:07;;;;;;;1.97;0.90;;;16.70;50.70;;;;;;5028837;28;20175;-66
2023/02/18 05:37:33;;;;;;;1.00;0.70;;;16.70;50.60;;;;;;5029971;28;20191;-66
2023/02/18 05:39:59;;;;;;;0.90;0.70;;;16.70;50.60;;;;;;5030297;28;20490;-65
2023/02/18 05:42:24;;;;;;;1.17;0.70;;;16.70;50.70;;;;;;5030276;28;20182;-66
2023/02/18 05:44:50;;;;;;;0.90;0.73;;;16.70;50.70;;;;;;5029861;28;20747;-65
2023/02/18 05:47:15;;;;;;;1.00;0.80;;;16.70;50.70;;;;;;5029765;28;20168;-65
2023/02/18 05:49:41;;;;;;;0.90;0.80;;;16.70;51.20;;;;;;5029960;28;20522;-65
2023/02/18 05:52:08;;;;;;;1.03;0.80;;;16.70;50.70;;;;;;5029927;28;20172;-66
2023/02/18 05:54:35;;;;;;;1.00;0.80;;;16.70;51.20;;;;;;5029806;28;20564;-65
2023/02/18 05:57:00;;;;;;;1.17;1.00;;;16.70;50.70;;;;;;5029968;28;20419;-65
2023/02/18 05:59:26;;;;;;;0.90;0.80;;;16.70;50.70;;;;;;5029771;28;20434;-66
2023/02/18 06:01:52;;;;;;;2.47;0.90;;;16.70;50.70;;;;;;5029962;28;20179;-66
2023/02/18 06:04:18;;;;;;;1.20;0.90;;;16.70;50.70;;;;;;5033140;28;20223;-66
2023/02/18 06:06:44;;;;;;;1.20;0.83;;;16.70;50.70;;;;;;5033417;28;20923;-66
2023/02/18 06:09:10;;;;;;;2.13;1.20;;;16.70;50.70;;;;;;5033034;28;20429;-66
2023/02/18 06:11:36;;;;;;;0.90;0.80;;;16.70;50.70;;;;;;5033713;28;20164;-65
2023/02/18 06:14:02;;;;;;;1.00;0.83;;;16.70;50.70;;;;;;5033785;28;20414;-65
2023/02/18 06:16:27;;;;;;;1.53;0.80;;;16.70;50.70;;;;;;5033149;28;20168;-65
2023/02/18 06:18:53;;;;;;;0.90;0.80;;;16.70;50.70;;;;;;5033183;28;20199;-65
2023/02/18 06:21:19;;;;;;;1.10;0.80;;;16.60;51.20;;;;;;5032996;28;20517;-66
2023/02/18 06:23:44;;;;;;;1.00;0.70;;;16.70;50.80;;;;;;5033020;28;20203;-65
2023/02/18 06:26:10;;;;;;;1.10;0.80;;;16.60;50.70;;;;;;5033236;28;20171;-65
2023/02/18 06:28:36;;;;;;;0.90;0.80;;;16.60;50.60;;;;;;5032848;28;20188;-65
2023/02/18 06:31:02;;;;;;;1.10;1.00;;;16.60;50.70;;;;;;5033028;28;20170;-64
2023/02/18 06:33:30;;;;;;;1.40;0.80;;;16.70;50.70;;;;;;5032889;28;20516;-65
2023/02/18 06:35:58;;;;;;;1.03;0.70;;;16.60;50.70;;;;;;5032841;28;20182;-65
2023/02/18 06:38:24;;;;;;;0.90;0.70;;;16.60;50.60;;;;;;5032713;28;20466;-65
2023/02/18 06:40:50;;;;;;;1.00;0.80;;;16.60;50.60;;;;;;5031380;28;20425;-65
2023/02/18 06:43:16;;;;;;;1.00;0.70;;;16.60;50.60;;;;;;5032888;28;20821;-66
2023/02/18 06:45:42;;;;;;;0.93;0.73;;;16.60;50.60;;;;;;5032683;28;20180;-65
2023/02/18 06:48:07;;;;;;;1.60;0.87;;;16.60;50.60;;;;;;5032594;28;20469;-66
2023/02/18 06:50:33;;;;;;;1.03;0.70;;;16.60;50.70;;;;;;5032563;28;20172;-65
2023/02/18 06:52:58;;;;;;;1.27;0.80;;;16.60;50.60;;;;;;5032653;28;20637;-66
2023/02/18 06:55:24;;;;;;;1.00;0.70;;;16.60;50.70;;;;;;5032439;28;20259;-66
2023/02/18 06:57:50;;;;;;;1.50;0.90;;;16.60;50.70;;;;;;5032524;28;20205;-66
2023/02/18 07:00:16;;;;;;;1.10;0.80;;;16.60;50.70;;;;;;5032698;28;20429;-66
2023/02/18 07:02:41;;;;;;;1.00;0.80;;;16.60;50.70;;;;;;5032444;28;20187;-65
2023/02/18 07:05:07;;;;;;;1.00;0.80;;;16.60;50.70;;;;;;5032483;28;20178;-66
2023/02/18 07:07:33;;;;;;;1.03;0.80;;;16.60;50.70;;;;;;5032058;28;20206;-66
2023/02/18 07:09:59;;;;;;;1.57;0.90;;;16.60;50.70;;;;;;5032244;28;20808;-66
2023/02/18 07:12:25;;;;;;;0.90;0.73;;;16.60;50.70;;;;;;5032313;28;20541;-72
2023/02/18 07:14:51;;;;;;;0.90;0.70;;;16.60;50.70;;;;;;5031746;28;20207;-71
2023/02/18 07:17:16;;;;;;;0.90;0.70;;;16.60;50.70;;;;;;5032896;28;20442;-71
2023/02/18 07:19:42;;;;;;;0.90;0.77;;;16.60;51.30;;;;;;5032310;28;20190;-72
2023/02/18 07:22:08;;;;;;;0.90;0.70;;;16.60;50.70;;;;;;5032010;28;20176;-70
2023/02/18 07:24:33;;;;;;;0.90;0.70;;;16.60;51.00;;;;;;5032239;28;20243;-72
2023/02/18 07:26:59;;;;;;;0.90;0.70;;;16.60;50.70;;;;;;5032383;28;20171;-72
2023/02/18 07:29:54;;;;;;;0.90;0.70;;;16.60;50.70;;;;;;5031960;28;20195;-71
2023/02/18 07:32:19;;;;;;;0.97;0.80;;;16.60;50.80;;;;;;5030927;28;20358;-72
2023/02/18 07:34:45;;;;;;;0.97;0.80;;;16.60;50.90;;;;;;5031826;28;20483;-71
2023/02/18 07:37:11;;;;;;;0.90;0.80;;;16.60;50.90;;;;;;5031807;28;20184;-70
2023/02/18 07:39:41;;;;;;;0.93;0.80;;;16.60;50.90;;;;;;5032496;28;20188;-71
2023/02/18 07:42:07;;;;;;;0.90;0.73;;;16.60;50.90;;;;;;5032094;28;20176;-71
2023/02/18 07:44:33;;;;;;;1.00;0.70;;;16.60;50.90;;;;;;5031768;28;20462;-71
2023/02/18 07:46:59;;;;;;;0.80;0.70;;;16.60;50.90;;;;;;5031907;28;20414;-71
2023/02/18 07:49:25;;;;;;;1.20;1.10;;;16.60;50.90;;;;;;5031724;28;20218;-71
2023/02/18 07:51:50;;;;;;;1.10;1.00;;;16.60;50.90;;;;;;5032093;28;20175;-67
2023/02/18 07:54:17;;;;;;;1.00;0.80;;;16.60;50.90;;;;;;5031120;28;20460;-67
2023/02/18 07:56:43;;;;;;;1.63;1.20;;;16.60;50.90;;;;;;5031892;28;20188;-67
2023/02/18 07:59:09;;;;;;;1.67;1.00;;;16.60;51.00;;;;;;5031719;28;20446;-67
2023/02/18 08:01:34;;;;;;;1.37;1.10;;;16.60;51.00;;;;;;5031754;28;20988;-67
2023/02/18 08:04:00;;;;;;;1.10;0.80;;;16.60;51.00;;;;;;5031796;28;20462;-67
2023/02/18 08:06:40;;;;;;;1.20;1.00;;;16.60;51.00;;;;;;5031846;28;20251;-67
2023/02/18 08:09:06;;;;;;;1.20;0.97;;;16.60;51.00;;;;;;5031793;28;20204;-67
2023/02/18 08:11:33;;;;;;;1.40;1.30;;;16.50;50.90;;;;;;5032642;28;20426;-68
2023/02/18 08:13:58;;;;;;;1.00;0.80;;;16.60;51.10;;;;;;5032358;28;20407;-67
2023/02/18 08:16:24;;;;;;;2.00;1.40;;;16.60;51.10;;;;;;5031975;28;20414;-67
2023/02/18 08:18:51;;;;;;;1.13;1.00;;;16.60;51.10;;;;;;5032377;28;20203;-67
2023/02/18 08:21:18;;;;;;;2.60;1.30;;;16.50;51.00;;;;;;5031940;28;20411;-68
2023/02/18 08:23:44;;;;;;;3.93;3.53;;;16.50;51.10;;;;;;5034420;28;20842;-67
2023/02/18 08:26:10;;;;;;;6.57;3.90;;;16.50;52.40;;;;;;5032416;28;20501;-67
2023/02/18 08:28:35;;;;;;;6.63;3.77;;;16.30;53.90;;;;;;5031330;28;20530;-67
2023/02/18 08:31:01;;;;;;;5.00;3.77;;;16.30;53.80;;;;;;5031540;28;20415;-67
2023/02/18 08:33:27;;;;;;;4.57;3.40;;;16.30;53.80;;;;;;5031063;28;20232;-67
2023/02/18 08:35:54;;;;;;;4.43;4.03;;;16.30;53.40;;;;;;5031330;28;20228;-68
2023/02/18 08:38:22;;;;;;;3.53;3.23;;;16.30;53.40;;;;;;5031144;28;20474;-66
2023/02/18 08:40:48;;;;;;;3.47;2.97;;;16.40;53.20;;;;;;5031095;27;20991;-67
2023/02/18 08:43:14;;;;;;;3.80;3.50;;;16.40;53.00;;;;;;5030061;28;20537;-67
2023/02/18 08:45:41;;;;;;;5.63;3.23;;;16.40;52.80;;;;;;5031430;28;20431;-67
2023/02/18 08:48:07;;;;;;;3.13;2.67;;;16.50;52.80;;;;;;5029692;28;20871;-67
2023/02/18 08:50:33;;;;;;;3.37;2.67;;;16.50;52.60;;;;;;5031152;28;20471;-67
2023/02/18 08:53:02;;;;;;;2.97;2.67;;;16.50;52.50;;;;;;5030955;28;20423;-67
2023/02/18 08:55:31;;;;;;;3.50;2.70;;;16.60;52.50;;;;;;5029514;28;20430;-65
2023/02/18 08:57:57;;;;;;;3.40;2.50;;;16.60;52.50;;;;;;5029614;28;20438;-67
2023/02/18 09:00:23;;;;;;;2.57;2.20;;;16.60;52.50;;;;;;5031014;28;20456;-68
2023/02/18 09:02:48;;;;;;;2.90;2.40;;;16.70;52.50;;;;;;5030615;28;20453;-67
2023/02/18 09:05:14;;;;;;;2.70;2.50;;;16.70;52.40;;;;;;5030686;28;20173;-67
2023/02/18 09:07:41;;;;;;;3.03;2.50;;;16.70;52.40;;;;;;5030585;28;20243;-67
2023/02/18 09:10:07;;;;;;;2.50;2.30;;;16.80;52.40;;;;;;5030601;28;20445;-68
2023/02/18 09:12:33;;;;;;;2.93;2.50;;;16.80;52.30;;;;;;5031060;28;20583;-67
2023/02/18 09:14:59;;;;;;;2.83;2.50;;;16.80;52.30;;;;;;5031238;28;20816;-67
2023/02/18 09:17:26;;;;;;;2.37;1.90;;;16.80;52.20;;;;;;5030982;28;20434;-68
2023/02/18 09:19:51;;;;;;;2.80;2.23;;;16.90;52.20;;;;;;5013053;28;20502;-67
2023/02/18 09:22:18;;;;;;;2.33;2.13;;;16.90;52.20;;;;;;5030389;28;20453;-67
2023/02/18 09:24:43;;;;;;;3.40;2.60;;;16.90;52.10;;;;;;5030929;28;20212;-67
2023/02/18 09:27:09;;;;;;;3.30;1.93;;;17.00;52.20;;;;;;5030177;28;20935;-68
2023/02/18 09:29:38;;;;;;;2.13;1.93;;;17.00;52.10;;;;;;5030812;28;20176;-68
2023/02/18 09:32:04;;;;;;;2.30;2.10;;;17.00;52.00;;;;;;5030248;28;20634;-68
2023/02/18 09:34:30;;;;;;;2.30;2.07;;;17.10;52.10;;;;;;5030376;28;20415;-67
2023/02/18 09:36:56;;;;;;;2.20;1.80;;;17.10;52.00;;;;;;5029302;28;20468;-67
2023/02/18 09:39:22;;;;;;;2.90;2.17;;;17.10;52.00;;;;;;5033815;28;20438;-68
2023/02/18 09:42:01;;;;;;;1.80;1.70;;;17.10;51.90;;;;;;5032686;28;20598;-68
2023/02/18 09:44:56;;;;;;;2.67;2.13;;;17.10;51.80;;;;;;5033063;28;20799;-69
2023/02/18 09:47:27;;;;;;;2.00;1.80;;;17.20;51.90;;;;;;5033453;28;20469;-67
2023/02/18 09:50:02;;;;;;;2.20;2.00;;;17.20;51.80;;;;;;5033929;28;20419;-67
2023/02/18 09:52:31;;;;;;;2.30;2.10;;;17.10;51.70;;;;;;5033804;28;20406;-66
2023/02/18 09:54:57;;;;;;;1.80;1.67;;;17.20;51.80;;;;;;5033550;28;20460;-66
2023/02/18 09:57:28;;;;;;;2.47;2.27;;;17.20;51.70;;;;;;5033605;28;20806;-67
2023/02/18 10:00:12;;;;;;;2.53;2.00;;;17.20;51.70;;;;;;5033691;28;20254;-67
2023/02/18 10:03:12;;;;;;;2.30;2.10;;;17.20;51.70;;;;;;5033503;28;20402;-67
2023/02/18 10:05:52;;;;;;;4.73;1.90;;;17.10;51.80;;;;;;5029131;28;20442;-69
2023/02/18 10:08:26;;;;;;;2.30;2.03;;;17.10;51.80;;;;;;5033278;28;21014;-70
2023/02/18 10:10:52;;;;;;;2.70;1.70;;;17.10;51.80;;;;;;5033401;28;20414;-70
2023/02/18 10:13:30;;;;;;;2.00;1.60;;;17.10;51.70;;;;;;5033686;28;20410;-69
2023/02/18 10:15:56;;;;;;;2.83;1.70;;;17.10;51.70;;;;;;5033085;28;20168;-70
2023/02/18 10:18:32;;;;;;;1.70;1.60;;;17.10;51.70;;;;;;5031838;28;20445;-68
2023/02/18 10:21:05;;;;;;;3.67;1.87;;;17.10;51.60;;;;;;5033377;28;20251;-70
2023/02/18 10:23:34;;;;;;;2.83;2.00;;;17.10;51.80;;;;;;5033081;28;20467;-70
2023/02/18 10:26:05;;;;;;;2.63;2.23;;;17.10;51.70;;;;;;5033214;28;20905;-70
2023/02/18 10:28:31;;;;;;;1.87;1.70;;;17.10;51.60;;;;;;5033026;28;20430;-70
2023/02/18 10:31:02;;;;;;;1.53;1.43;;;17.10;51.80;;;;;;5042865;23;20490;-68
2023/02/18 10:33:41;;;;;;;2.73;1.90;;;17.10;51.70;;;;;;5014205;28;20243;-67
2023/02/18 10:36:53;;;;;;;2.07;1.50;;;17.10;51.80;;;;;;5014178;28;20402;-67
2023/02/18 10:39:42;;;;;;;2.17;1.97;;;17.10;51.80;;;;;;5035102;28;20406;-68
2023/02/18 10:42:20;;;;;;;1.90;1.50;;;17.10;51.90;;;;;;5014911;28;20404;-68
2023/02/18 10:45:21;;;;;;;2.00;1.80;;;17.10;51.90;;;;;;4999457;28;20837;-67
2023/02/18 10:48:21;;;;;;;2.10;1.90;;;17.10;51.90;;;;;;4994096;28;20499;-68
2023/02/18 10:50:48;;;;;;;3.60;1.80;;;17.00;51.80;;;;;;4993680;28;20992;-67
2023/02/18 10:53:38;;;;;;;1.67;1.57;;;17.00;51.90;;;;;;4993379;28;20423;-68
2023/02/18 10:56:06;;;;;;;2.20;2.00;;;17.00;51.90;;;;;;4993814;28;20463;-68
2023/02/18 10:58:45;;;;;;;1.63;1.53;;;17.00;51.90;;;;;;4993741;28;20400;-67
2023/02/18 11:01:22;;;;;;;3.20;1.73;;;17.00;51.90;;;;;;4993333;28;20463;-67
2023/02/18 11:03:49;;;;;;;2.83;2.23;;;17.00;51.80;;;;;;4993404;28;20542;-67
2023/02/18 11:06:33;;;;;;;2.50;2.00;;;17.00;51.80;;;;;;4993621;28;20906;-68
2023/02/18 11:08:59;;;;;;;1.53;1.33;;;17.00;51.80;;;;;;4994278;28;20447;-68
2023/02/18 11:11:30;;;;;;;2.00;1.80;;;17.00;51.80;;;;;;4993624;28;20428;-68
2023/02/18 11:13:59;;;;;;;2.00;1.80;;;17.00;51.80;;;;;;4993308;28;20457;-68
2023/02/18 11:16:44;;;;;;;1.93;1.80;;;17.00;51.80;;;;;;4993277;28;20922;-68
2023/02/18 11:19:36;;;;;;;1.97;1.77;;;17.00;51.80;;;;;;4992978;28;20408;-68
2023/02/18 11:22:29;;;;;;;1.67;1.57;;;17.00;51.80;;;;;;4993529;28;20467;-67
2023/02/18 11:24:59;;;;;;;2.00;1.70;;;17.00;51.80;;;;;;4993003;28;20500;-67
2023/02/18 11:27:41;;;;;;;2.33;1.80;;;17.00;51.80;;;;;;4992992;28;20925;-67
2023/02/18 11:30:21;;;;;;;2.00;1.73;;;17.00;51.80;;;;;;4992679;28;20440;-67
2023/02/18 11:32:56;;;;;;;1.53;1.43;;;17.00;51.80;;;;;;4993054;28;20454;-67
2023/02/18 11:35:25;;;;;;;1.77;1.63;;;17.00;51.80;;;;;;4993013;28;20392;-67
2023/02/18 11:37:52;;;;;;;2.30;1.90;;;17.00;51.80;;;;;;4992977;28;20493;-67
2023/02/18 11:40:23;;;;;;;2.40;1.70;;;17.00;51.80;;;;;;4992885;28;20435;-68
2023/02/18 11:42:49;;;;;;;2.33;1.87;;;17.00;51.70;;;;;;4993156;28;20397;-67
2023/02/18 11:45:33;;;;;;;2.13;1.93;;;17.00;51.70;;;;;;4992399;28;20474;-68
2023/02/18 11:48:05;;;;;;;2.30;2.10;;;17.00;51.70;;;;;;4993262;28;20173;-67
2023/02/18 11:50:32;;;;;;;2.07;1.30;;;17.00;51.70;;;;;;4993471;28;20436;-68
2023/02/18 11:52:58;;;;;;;2.73;2.03;;;17.00;51.70;;;;;;4992564;28;20412;-67
2023/02/18 11:55:29;;;;;;;2.20;1.50;;;17.00;51.60;;;;;;4992915;28;20412;-68
2023/02/18 11:58:04;;;;;;;2.43;1.47;;;17.00;51.60;;;;;;4992754;28;20422;-67
2023/02/18 12:00:43;;;;;;;2.73;1.60;;;17.00;51.70;;;;;;4990752;28;20440;-67
2023/02/18 12:03:41;;;;;;;1.60;1.50;;;17.00;51.60;;;;;;4992684;28;20448;-68
2023/02/18 12:06:29;;;;;;;2.00;1.80;;;17.00;51.60;;;;;;4992115;28;20503;-68
2023/02/18 12:09:04;;;;;;;2.13;1.87;;;17.00;51.60;;;;;;4992201;28;20762;-68
2023/02/18 12:11:52;;;;;;;1.73;1.43;;;17.00;51.60;;;;;;4991282;28;20454;-68
2023/02/18 12:14:20;;;;;;;2.30;1.70;;;17.00;51.60;;;;;;4992218;28;20503;-68
2023/02/18 12:17:21;;;;;;;2.93;1.87;;;17.00;51.60;;;;;;4992981;28;20400;-68
2023/02/18 12:19:58;;;;;;;2.23;1.97;;;17.00;51.60;;;;;;4992207;28;20920;-67
2023/02/18 12:22:32;;;;;;;2.33;1.87;;;17.00;51.60;;;;;;4992039;28;20501;-67
2023/02/18 12:25:27;;;;;;;1.70;1.60;;;17.00;51.60;;;;;;4992388;28;20464;-68
2023/02/18 12:28:16;;;;;;;2.13;1.63;;;17.00;51.60;;;;;;4992290;28;20767;-67
2023/02/18 12:31:15;;;;;;;2.50;1.83;;;17.00;51.60;;;;;;4990559;28;20460;-67
2023/02/18 12:34:09;;;;;;;3.13;1.97;;;17.00;51.50;;;;;;4992163;28;20408;-67
2023/02/18 12:36:45;;;;;;;2.73;2.17;;;17.00;51.50;;;;;;4991846;28;20917;-67
2023/02/18 12:39:23;;;;;;;2.50;1.63;;;17.00;51.50;;;;;;4991244;28;20753;-68
2023/02/18 12:42:16;;;;;;;2.33;1.77;;;17.00;51.50;;;;;;4992181;28;20835;-67
2023/02/18 12:45:26;;;;;;;1.93;1.57;;;17.00;51.50;;;;;;4992342;28;20539;-67
2023/02/18 12:48:07;;;;;;;2.07;1.63;;;17.00;51.50;;;;;;4992078;28;20935;-67
2023/02/18 12:50:51;;;;;;;1.60;1.30;;;17.00;51.50;;;;;;4991530;28;20428;-68
2023/02/18 12:53:37;;;;;;;2.20;1.53;;;16.90;51.40;;;;;;4992166;28;20522;-67
2023/02/18 12:56:05;;;;;;;1.93;1.50;;;17.00;51.40;;;;;;4991804;28;20465;-67
2023/02/18 12:58:49;;;;;;;2.20;1.60;;;17.00;51.40;;;;;;4991341;28;20417;-67
2023/02/18 13:01:33;;;;;;;1.77;1.60;;;17.00;51.40;;;;;;4991325;28;20958;-67
2023/02/18 13:04:22;;;;;;;1.97;1.77;;;17.00;51.40;;;;;;4991863;28;20459;-67
2023/02/18 13:07:10;;;;;;;2.20;1.47;;;17.00;51.40;;;;;;4991586;28;20968;-68
2023/02/18 13:09:59;;;;;;;2.10;1.80;;;17.00;51.40;;;;;;4991457;28;20469;-68